createdAt,value
2023-08-15T00:02:21.121Z,69.17
2023-08-15T00:04:47.480Z,68.20
2023-08-15T00:07:13.862Z,69.08
2023-08-15T00:09:40.214Z,68.79
2023-08-15T00:12:06.960Z,68.46
2023-08-15T00:14:33.370Z,68.63
2023-08-15T00:16:59.814Z,70.53
2023-08-15T00:19:26.236Z,68.21
2023-08-15T00:21:52.598Z,68.33
2023-08-15T00:24:19.225Z,69.06
2023-08-15T00:26:45.587Z,70.09
2023-08-15T00:29:11.966Z,70.90
2023-08-15T00:31:38.332Z,71.37
2023-08-15T00:34:04.677Z,70.26
2023-08-15T00:36:31.325Z,71.27
2023-08-15T00:39:02.469Z,69.77
2023-08-15T00:41:30.184Z,69.67
2023-08-15T00:43:57.834Z,69.32
2023-08-15T00:46:24.373Z,69.20
2023-08-15T00:48:51.106Z,69.89
2023-08-15T00:51:18.190Z,68.91
2023-08-15T00:53:45.014Z,68.73
2023-08-15T00:56:11.760Z,69.01
2023-08-15T00:58:38.434Z,68.89
2023-08-15T01:01:04.876Z,69.43
2023-08-15T01:03:31.677Z,69.49
2023-08-15T01:05:58.146Z,69.61
2023-08-15T01:08:24.533Z,69.71
2023-08-15T01:10:51.119Z,69.58
2023-08-15T01:13:28.753Z,70.63
2023-08-15T01:15:55.306Z,69.08
2023-08-15T01:18:40.237Z,69.94
2023-08-15T01:21:07.646Z,69.31
2023-08-15T01:23:39.771Z,70.27
2023-08-15T01:26:06.303Z,70.11
2023-08-15T01:28:33.122Z,70.46
2023-08-15T01:31:11.585Z,69.64
2023-08-15T01:33:44.340Z,69.93
2023-08-15T01:36:15.394Z,70.24
2023-08-15T01:38:48.986Z,71.27
2023-08-15T01:41:20.309Z,71.08
2023-08-15T01:43:48.360Z,70.60
2023-08-15T01:46:15.462Z,71.25
2023-08-15T01:48:45.128Z,70.63
2023-08-15T01:51:11.731Z,70.20
2023-08-15T01:53:39.218Z,70.87
2023-08-15T01:56:06.270Z,70.94
2023-08-15T01:58:32.822Z,71.19
2023-08-15T02:00:59.764Z,71.10
2023-08-15T02:03:27.011Z,70.47
2023-08-15T02:05:53.533Z,71.19
2023-08-15T02:08:21.588Z,70.95
2023-08-15T02:10:48.032Z,69.98
2023-08-15T02:13:14.413Z,70.77
2023-08-15T02:15:40.792Z,71.87
2023-08-15T02:18:07.333Z,71.68
2023-08-15T02:20:33.744Z,72.52
2023-08-15T02:23:00.154Z,71.66
2023-08-15T02:25:26.598Z,72.13
2023-08-15T02:27:52.945Z,73.35
2023-08-15T02:30:19.457Z,73.36
2023-08-15T02:32:45.884Z,72.96
2023-08-15T02:35:14.166Z,71.58
2023-08-15T02:37:41.161Z,72.67
2023-08-15T02:40:09.673Z,73.92
2023-08-15T02:42:36.307Z,74.09
2023-08-15T02:45:03.702Z,75.37
2023-08-15T02:47:30.127Z,76.80
2023-08-15T02:49:56.539Z,75.91
2023-08-15T02:52:22.899Z,77.24
2023-08-15T02:54:49.324Z,76.90
2023-08-15T02:57:15.681Z,77.04
2023-08-15T02:59:42.072Z,76.45
2023-08-15T03:02:10.921Z,76.45
2023-08-15T03:04:37.429Z,76.61
2023-08-15T03:07:03.809Z,76.20
2023-08-15T03:09:30.245Z,76.82
2023-08-15T03:11:56.606Z,77.42
2023-08-15T03:14:23.097Z,79.74
2023-08-15T03:16:49.483Z,81.14
2023-08-15T03:19:15.844Z,83.45
2023-08-15T03:21:42.187Z,83.26
2023-08-15T03:24:08.742Z,80.49
2023-08-15T03:26:35.113Z,79.55
2023-08-15T03:29:01.483Z,78.77
2023-08-15T03:31:27.874Z,78.10
2023-08-15T03:33:54.333Z,77.20
2023-08-15T03:36:20.704Z,77.31
2023-08-15T03:38:47.581Z,76.61
2023-08-15T03:41:13.936Z,77.20
2023-08-15T03:43:40.385Z,78.17
2023-08-15T03:46:07.356Z,77.85
2023-08-15T03:48:34.174Z,76.84
2023-08-15T03:51:01.507Z,78.94
2023-08-15T03:53:28.533Z,78.17
2023-08-15T03:55:55.690Z,77.00
2023-08-15T03:58:22.883Z,76.63
2023-08-15T04:00:50.335Z,76.09
2023-08-15T04:03:18.390Z,75.84
2023-08-15T04:05:48.656Z,77.59
2023-08-15T04:08:16.385Z,77.41
2023-08-15T04:10:46.486Z,78.06
2023-08-15T04:13:13.684Z,78.64
2023-08-15T04:15:40.374Z,78.75
2023-08-15T04:18:08.759Z,78.67
2023-08-15T04:20:39.333Z,78.46
2023-08-15T04:23:07.169Z,78.07
2023-08-15T04:25:37.855Z,77.17
2023-08-15T04:28:05.005Z,77.33
2023-08-15T04:30:32.665Z,78.26
2023-08-15T04:33:02.588Z,77.91
2023-08-15T04:35:29.425Z,77.86
2023-08-15T04:37:56.050Z,77.84
2023-08-15T04:40:41.910Z,77.38
2023-08-15T04:43:09.052Z,77.18
2023-08-15T04:45:41.622Z,77.01
2023-08-15T04:48:09.307Z,76.85
2023-08-15T04:50:35.696Z,77.00
2023-08-15T04:53:02.046Z,77.10
2023-08-15T04:55:28.418Z,77.67
2023-08-15T04:57:54.777Z,77.52
2023-08-15T05:00:21.866Z,77.61
2023-08-15T05:02:48.444Z,77.36
2023-08-15T05:05:16.059Z,77.39
2023-08-15T05:07:42.481Z,78.23
2023-08-15T05:10:09.386Z,78.81
2023-08-15T05:12:35.903Z,78.57
2023-08-15T05:15:03.028Z,77.57
2023-08-15T05:17:31.876Z,77.82
2023-08-15T05:19:58.622Z,78.63
2023-08-15T05:22:25.005Z,78.70
2023-08-15T05:24:51.551Z,78.96
2023-08-15T05:27:17.906Z,78.72
2023-08-15T05:29:44.903Z,77.99
2023-08-15T05:32:11.787Z,77.01
2023-08-15T05:34:38.355Z,78.56
2023-08-15T05:37:04.916Z,78.72
2023-08-15T05:39:31.357Z,78.64
2023-08-15T05:41:57.744Z,77.39
2023-08-15T05:44:24.161Z,76.99
2023-08-15T05:46:50.887Z,76.76
2023-08-15T05:49:17.289Z,76.84
2023-08-15T05:51:43.668Z,77.00
2023-08-15T05:54:10.031Z,77.63
2023-08-15T05:56:36.429Z,78.32
2023-08-15T05:59:02.884Z,77.72
2023-08-15T06:01:29.256Z,77.94
2023-08-15T06:03:55.772Z,77.88
2023-08-15T06:06:23.491Z,77.43
2023-08-15T06:08:49.901Z,77.50
2023-08-15T06:11:16.592Z,77.26
2023-08-15T06:13:43.111Z,78.46
2023-08-15T06:16:11.953Z,77.54
2023-08-15T06:18:39.958Z,78.24
2023-08-15T06:21:06.356Z,77.33
2023-08-15T06:23:32.781Z,76.42
2023-08-15T06:25:59.175Z,78.20
2023-08-15T06:28:25.528Z,78.37
2023-08-15T06:30:51.955Z,78.12
2023-08-15T06:33:18.426Z,77.30
2023-08-15T06:35:44.779Z,76.64
2023-08-15T06:38:11.487Z,76.59
2023-08-15T06:40:37.846Z,75.58
2023-08-15T06:43:04.394Z,76.52
2023-08-15T06:45:30.833Z,75.77
2023-08-15T06:47:57.277Z,74.65
2023-08-15T06:50:23.660Z,76.22
2023-08-15T06:52:50.023Z,77.05
2023-08-15T06:55:16.521Z,76.63
2023-08-15T06:57:42.903Z,76.40
2023-08-15T07:00:12.973Z,77.31
2023-08-15T07:02:40.479Z,77.03
2023-08-15T07:05:08.314Z,77.31
2023-08-15T07:07:34.734Z,76.92
2023-08-15T07:10:01.184Z,75.86
2023-08-15T07:12:27.590Z,75.67
2023-08-15T07:14:53.949Z,75.74
2023-08-15T07:17:20.359Z,76.97
2023-08-15T07:19:46.741Z,75.34
2023-08-15T07:22:13.090Z,75.44
2023-08-15T07:24:39.466Z,75.97
2023-08-15T07:27:05.928Z,76.31
2023-08-15T07:29:32.271Z,75.53
2023-08-15T07:31:58.707Z,76.58
2023-08-15T07:34:25.168Z,75.98
2023-08-15T07:36:51.543Z,76.64
2023-08-15T07:39:17.995Z,76.71
2023-08-15T07:41:44.433Z,76.44
2023-08-15T07:44:11.000Z,76.82
2023-08-15T07:46:38.075Z,74.80
2023-08-15T07:49:04.695Z,76.52
2023-08-15T07:51:32.696Z,76.00
2023-08-15T07:53:59.103Z,77.06
2023-08-15T07:56:25.526Z,75.62
2023-08-15T07:58:51.894Z,75.76
2023-08-15T08:01:18.984Z,73.11
2023-08-15T08:03:45.454Z,75.68
2023-08-15T08:06:26.434Z,75.33
2023-08-15T08:08:58.655Z,75.67
2023-08-15T08:11:25.180Z,75.67
2023-08-15T08:13:51.564Z,76.28
2023-08-15T08:16:18.446Z,75.58
2023-08-15T08:18:44.944Z,75.04
2023-08-15T08:21:12.293Z,75.58
2023-08-15T08:23:38.771Z,75.34
2023-08-15T08:26:06.184Z,74.94
2023-08-15T08:28:32.822Z,74.03
2023-08-15T08:31:00.109Z,74.74
2023-08-15T08:33:29.809Z,74.36
2023-08-15T08:35:56.219Z,73.45
2023-08-15T08:38:24.166Z,72.96
2023-08-15T08:40:54.872Z,73.17
2023-08-15T08:43:21.766Z,73.20
2023-08-15T08:45:52.036Z,73.00
2023-08-15T08:48:19.266Z,73.88
2023-08-15T08:50:46.080Z,73.36
2023-08-15T08:53:12.567Z,73.76
2023-08-15T08:55:40.176Z,73.67
2023-08-15T08:58:07.698Z,73.05
2023-08-15T09:00:35.148Z,72.03
2023-08-15T09:03:01.644Z,72.67
2023-08-15T09:05:28.638Z,71.80
2023-08-15T09:07:55.285Z,72.35
2023-08-15T09:10:22.942Z,71.10
2023-08-15T09:12:49.352Z,71.43
2023-08-15T09:15:15.820Z,71.55
2023-08-15T09:17:44.241Z,71.67
2023-08-15T09:20:15.570Z,73.14
2023-08-15T09:22:48.010Z,72.66
2023-08-15T09:25:16.767Z,71.65
2023-08-15T09:27:44.024Z,71.74
2023-08-15T09:30:13.233Z,69.91
2023-08-15T09:32:43.861Z,69.84
2023-08-15T09:35:13.472Z,70.09
2023-08-15T09:37:45.264Z,69.33
2023-08-15T09:40:14.947Z,69.71
2023-08-15T09:42:41.776Z,71.05
2023-08-15T09:45:09.637Z,69.81
2023-08-15T09:47:38.267Z,68.76
2023-08-15T09:50:07.883Z,70.59
2023-08-15T09:52:40.190Z,68.79
2023-08-15T09:55:11.223Z,69.06
2023-08-15T09:57:38.795Z,68.74
2023-08-15T10:00:06.824Z,68.68
2023-08-15T10:02:43.493Z,69.11
2023-08-15T10:05:12.298Z,68.58
2023-08-15T10:07:40.122Z,68.13
2023-08-15T10:10:07.053Z,66.92
2023-08-15T10:12:36.064Z,67.84
2023-08-15T10:15:03.489Z,66.71
2023-08-15T10:17:33.271Z,65.90
2023-08-15T10:20:07.458Z,66.53
2023-08-15T10:22:35.290Z,65.70
2023-08-15T10:25:18.643Z,66.37
2023-08-15T10:27:53.206Z,67.59
2023-08-15T10:30:42.657Z,66.24
2023-08-15T10:33:13.520Z,63.80
2023-08-15T10:36:03.152Z,63.78
2023-08-15T10:38:41.538Z,64.15
2023-08-15T10:41:12.307Z,64.25
2023-08-15T10:43:38.844Z,62.83
2023-08-15T10:46:07.544Z,61.20
2023-08-15T10:49:01.674Z,63.13
2023-08-15T10:51:34.813Z,62.41
2023-08-15T10:54:04.103Z,64.16
2023-08-15T10:56:33.144Z,63.51
2023-08-15T10:59:04.564Z,63.40
2023-08-15T11:01:31.625Z,62.06
2023-08-15T11:03:59.327Z,63.37
2023-08-15T11:06:25.985Z,62.72
2023-08-15T11:08:57.624Z,64.60
2023-08-15T11:11:24.162Z,64.04
2023-08-15T11:13:53.354Z,62.88
2023-08-15T11:16:21.768Z,64.43
2023-08-15T11:18:49.199Z,65.19
2023-08-15T11:21:17.884Z,65.36
2023-08-15T11:23:47.584Z,64.09
2023-08-15T11:26:16.064Z,63.63
2023-08-15T11:28:42.608Z,64.24
2023-08-15T11:31:22.047Z,64.35
2023-08-15T11:33:52.450Z,64.85
2023-08-15T11:36:19.371Z,64.54
2023-08-15T11:38:45.754Z,64.71
2023-08-15T11:41:12.437Z,63.64
2023-08-15T11:43:38.914Z,64.47
2023-08-15T11:46:06.426Z,63.84
2023-08-15T11:48:33.757Z,63.55
2023-08-15T11:51:01.379Z,63.20
2023-08-15T11:53:28.390Z,63.11
2023-08-15T11:55:55.101Z,62.80
2023-08-15T11:58:31.729Z,64.31
2023-08-15T12:01:03.534Z,63.88
2023-08-15T12:03:30.906Z,64.33
2023-08-15T12:05:59.206Z,63.76
2023-08-15T12:08:30.515Z,62.57
2023-08-15T12:11:00.969Z,62.67
2023-08-15T12:13:38.779Z,62.07
2023-08-15T12:16:06.942Z,63.88
2023-08-15T12:18:34.266Z,62.77
2023-08-15T12:21:02.026Z,63.20
2023-08-15T12:23:30.059Z,62.40
2023-08-15T12:25:57.055Z,62.86
2023-08-15T12:28:23.744Z,61.29
2023-08-15T12:30:50.888Z,62.08
2023-08-15T12:33:27.578Z,61.89
2023-08-15T12:36:02.240Z,62.97
2023-08-15T12:38:28.744Z,62.77
2023-08-15T12:40:55.143Z,61.84
2023-08-15T12:43:21.498Z,62.08
2023-08-15T12:45:48.484Z,62.03
2023-08-15T12:48:14.938Z,61.98
2023-08-15T12:50:41.324Z,62.11
2023-08-15T12:53:09.595Z,62.62
2023-08-15T12:55:35.972Z,63.12
2023-08-15T12:58:04.037Z,63.21
2023-08-15T13:00:31.078Z,62.30
2023-08-15T13:02:58.693Z,62.44
2023-08-15T13:05:25.287Z,63.59
2023-08-15T13:07:51.718Z,61.72
2023-08-15T13:10:18.164Z,65.05
2023-08-15T13:12:44.582Z,65.50
2023-08-15T13:15:12.318Z,64.26
2023-08-15T13:17:38.734Z,64.20
2023-08-15T13:20:05.734Z,63.04
2023-08-15T13:22:32.191Z,62.91
2023-08-15T13:24:58.600Z,62.99
2023-08-15T13:27:25.000Z,63.55
2023-08-15T13:29:51.378Z,62.05
2023-08-15T13:32:17.766Z,62.57
2023-08-15T13:34:44.202Z,62.02
2023-08-15T13:37:10.617Z,61.78
2023-08-15T13:39:37.032Z,62.22
2023-08-15T13:42:04.473Z,62.63
2023-08-15T13:44:31.026Z,62.67
2023-08-15T13:46:57.454Z,62.16
2023-08-15T13:49:23.888Z,63.20
2023-08-15T13:51:50.311Z,62.95
2023-08-15T13:54:16.690Z,63.50
2023-08-15T13:56:43.057Z,63.04
2023-08-15T13:59:09.506Z,64.44
2023-08-15T14:01:35.878Z,65.44
2023-08-15T14:04:02.538Z,64.73
2023-08-15T14:06:29.575Z,64.26
2023-08-15T14:08:59.002Z,64.22
2023-08-15T14:11:25.386Z,64.35
2023-08-15T14:13:51.805Z,65.09
2023-08-15T14:16:18.369Z,64.70
2023-08-15T14:18:45.148Z,63.61
2023-08-15T14:21:15.330Z,63.47
2023-08-15T14:23:45.507Z,63.08
2023-08-15T14:26:12.273Z,63.27
2023-08-15T14:28:38.927Z,63.10
2023-08-15T14:31:06.232Z,62.55
2023-08-15T14:33:32.630Z,62.70
2023-08-15T14:35:59.603Z,62.17
2023-08-15T14:38:26.944Z,61.84
2023-08-15T14:40:53.619Z,63.14
2023-08-15T14:43:20.067Z,64.35
2023-08-15T14:45:46.522Z,64.76
2023-08-15T14:48:12.905Z,65.36
2023-08-15T14:50:40.968Z,63.94
2023-08-15T14:53:07.452Z,64.52
2023-08-15T14:55:33.866Z,64.76
2023-08-15T14:58:00.945Z,63.56
2023-08-15T15:00:27.377Z,63.60
2023-08-15T15:02:54.158Z,63.93
2023-08-15T15:05:20.810Z,65.47
2023-08-15T15:07:47.516Z,64.91
2023-08-15T15:10:13.965Z,65.59
2023-08-15T15:12:40.593Z,65.33
2023-08-15T15:15:09.707Z,63.48
2023-08-15T15:17:36.143Z,65.10
2023-08-15T15:20:04.287Z,66.50
2023-08-15T15:22:30.943Z,65.92
2023-08-15T15:24:57.385Z,66.36
2023-08-15T15:27:23.762Z,65.60
2023-08-15T15:29:50.122Z,65.84
2023-08-15T15:32:16.588Z,65.30
2023-08-15T15:34:42.972Z,67.18
2023-08-15T15:37:09.339Z,66.06
2023-08-15T15:39:35.727Z,62.46
2023-08-15T15:42:02.141Z,60.06
2023-08-15T15:44:30.537Z,60.57
2023-08-15T15:46:57.081Z,58.88
2023-08-15T15:49:23.718Z,58.62
2023-08-15T15:51:50.155Z,59.80
2023-08-15T15:54:16.631Z,60.29
2023-08-15T15:56:43.104Z,59.94
2023-08-15T15:59:09.458Z,60.12
2023-08-15T16:01:36.022Z,58.71
2023-08-15T16:04:02.889Z,58.47
2023-08-15T16:06:29.694Z,56.72
2023-08-15T16:08:56.625Z,57.40
2023-08-15T16:11:23.217Z,57.90
2023-08-15T16:13:49.689Z,56.02
2023-08-15T16:16:16.473Z,57.03
2023-08-15T16:18:44.370Z,57.82
2023-08-15T16:21:10.920Z,57.73
2023-08-15T16:23:37.380Z,57.63
2023-08-15T16:26:03.765Z,58.19
2023-08-15T16:28:30.152Z,58.03
2023-08-15T16:30:56.591Z,58.07
2023-08-15T16:33:23.134Z,57.81
2023-08-15T16:35:49.490Z,59.14
2023-08-15T16:38:16.322Z,58.39
2023-08-15T16:40:43.475Z,57.98
2023-08-15T16:43:17.928Z,57.72
2023-08-15T16:45:46.303Z,57.06
2023-08-15T16:48:12.768Z,55.89
2023-08-15T16:50:41.177Z,55.34
2023-08-15T16:53:07.618Z,58.57
2023-08-15T16:55:34.669Z,58.96
2023-08-15T16:58:01.634Z,57.27
2023-08-15T17:00:29.639Z,56.91
2023-08-15T17:02:56.755Z,56.81
2023-08-15T17:05:24.123Z,57.02
2023-08-15T17:07:50.577Z,56.50
2023-08-15T17:10:17.066Z,55.47
2023-08-15T17:12:43.523Z,56.86
2023-08-15T17:15:10.447Z,56.34
2023-08-15T17:17:36.870Z,55.88
2023-08-15T17:20:04.326Z,54.96
2023-08-15T17:22:33.774Z,54.05
2023-08-15T17:25:00.340Z,54.31
2023-08-15T17:27:26.992Z,54.09
2023-08-15T17:29:53.738Z,55.27
2023-08-15T17:32:20.519Z,54.32
2023-08-15T17:34:47.236Z,55.75
2023-08-15T17:37:13.591Z,54.85
2023-08-15T17:39:39.952Z,55.71
2023-08-15T17:42:06.355Z,54.76
2023-08-15T17:44:32.736Z,55.57
2023-08-15T17:46:59.225Z,55.59
2023-08-15T17:49:25.668Z,57.55
2023-08-15T17:51:52.124Z,57.76
2023-08-15T17:54:18.774Z,58.45
2023-08-15T17:56:45.124Z,58.78
2023-08-15T17:59:11.632Z,58.17
2023-08-15T18:01:39.799Z,59.24
2023-08-15T18:04:06.709Z,59.17
2023-08-15T18:06:35.024Z,58.50
2023-08-15T18:09:02.220Z,59.09
2023-08-15T18:11:28.983Z,59.38
2023-08-15T18:13:55.425Z,59.64
2023-08-15T18:16:21.800Z,59.31
2023-08-15T18:18:48.200Z,59.38
2023-08-15T18:21:14.773Z,59.91
2023-08-15T18:23:41.282Z,60.06
2023-08-15T18:26:08.656Z,60.14
2023-08-15T18:28:35.868Z,60.25
2023-08-15T18:31:02.522Z,60.55
2023-08-15T18:33:29.078Z,61.48
2023-08-15T18:35:55.520Z,61.20
2023-08-15T18:38:21.958Z,61.88
2023-08-15T18:40:48.316Z,62.07
2023-08-15T18:43:15.315Z,62.50
2023-08-15T18:45:45.557Z,63.27
2023-08-15T18:48:13.024Z,63.43
2023-08-15T18:50:45.558Z,63.35
2023-08-15T18:53:12.102Z,63.74
2023-08-15T18:55:39.719Z,64.00
2023-08-15T18:58:07.623Z,64.20
2023-08-15T19:00:34.301Z,64.81
2023-08-15T19:03:00.820Z,64.80
2023-08-15T19:05:27.323Z,65.29
2023-08-15T19:07:53.793Z,65.85
2023-08-15T19:10:20.847Z,65.92
2023-08-15T19:12:47.345Z,66.41
2023-08-15T19:15:18.192Z,66.62
2023-08-15T19:17:48.576Z,66.88
2023-08-15T19:20:19.292Z,66.92
2023-08-15T19:22:45.784Z,67.00
2023-08-15T19:25:12.239Z,67.13
2023-08-15T19:27:38.779Z,67.57
2023-08-15T19:30:06.134Z,67.99
2023-08-15T19:32:33.255Z,67.78
2023-08-15T19:35:00.024Z,67.75
2023-08-15T19:37:37.137Z,67.86
2023-08-15T19:40:04.613Z,67.77
2023-08-15T19:42:31.005Z,68.08
2023-08-15T19:45:00.529Z,68.38
2023-08-15T19:47:27.436Z,68.46
2023-08-15T19:49:53.800Z,68.95
2023-08-15T19:52:21.712Z,68.69
2023-08-15T19:54:49.455Z,69.28
2023-08-15T19:57:15.900Z,68.96
2023-08-15T19:59:42.324Z,69.63
2023-08-15T20:02:08.724Z,69.61
2023-08-15T20:04:35.141Z,69.57
2023-08-15T20:07:01.560Z,70.42
2023-08-15T20:09:27.990Z,72.61
2023-08-15T20:11:54.426Z,73.21
2023-08-15T20:14:22.013Z,73.74
2023-08-15T20:16:48.536Z,73.44
2023-08-15T20:19:15.000Z,73.85
2023-08-15T20:21:41.414Z,73.26
2023-08-15T20:24:08.268Z,74.07
2023-08-15T20:26:34.649Z,73.67
2023-08-15T20:29:01.093Z,73.62
2023-08-15T20:31:27.781Z,74.80
2023-08-15T20:33:54.332Z,75.04
2023-08-15T20:36:20.828Z,75.13
2023-08-15T20:38:47.200Z,75.82
2023-08-15T20:41:13.671Z,75.51
2023-08-15T20:43:40.073Z,76.11
2023-08-15T20:46:06.460Z,76.10
2023-08-15T20:48:32.910Z,75.00
2023-08-15T20:50:59.353Z,76.41
2023-08-15T20:53:25.708Z,75.86
2023-08-15T20:55:52.132Z,75.79
2023-08-15T20:58:18.647Z,76.07
2023-08-15T21:00:46.364Z,75.14
2023-08-15T21:03:13.410Z,75.30
2023-08-15T21:05:39.867Z,76.69
2023-08-15T21:08:06.398Z,76.49
2023-08-15T21:10:32.762Z,76.81
2023-08-15T21:13:02.356Z,75.86
2023-08-15T21:15:28.718Z,75.25
2023-08-15T21:17:55.173Z,75.37
2023-08-15T21:20:22.018Z,76.80
2023-08-15T21:22:48.801Z,76.00
2023-08-15T21:25:15.521Z,75.66
2023-08-15T21:27:41.948Z,75.63
2023-08-15T21:30:08.792Z,75.18
2023-08-15T21:32:35.204Z,76.04
2023-08-15T21:35:01.625Z,75.59
2023-08-15T21:37:28.008Z,75.10
2023-08-15T21:39:54.404Z,75.81
2023-08-15T21:42:20.739Z,76.34
2023-08-15T21:44:47.167Z,75.33
2023-08-15T21:47:13.572Z,75.46
2023-08-15T21:49:39.956Z,74.55
2023-08-15T21:52:06.535Z,74.18
2023-08-15T21:54:32.937Z,74.52
2023-08-15T21:57:05.580Z,74.13
2023-08-15T21:59:32.866Z,74.48
2023-08-15T22:02:00.757Z,74.96
2023-08-15T22:04:27.326Z,74.62
2023-08-15T22:06:53.763Z,74.49
2023-08-15T22:09:20.240Z,74.63
2023-08-15T22:11:46.591Z,76.04
2023-08-15T22:14:13.076Z,75.76
2023-08-15T22:16:39.506Z,75.27
2023-08-15T22:19:06.010Z,76.43
2023-08-15T22:21:32.552Z,75.19
2023-08-15T22:23:58.927Z,75.16
2023-08-15T22:26:25.312Z,75.60
2023-08-15T22:28:51.686Z,76.63
2023-08-15T22:31:18.103Z,76.48
2023-08-15T22:33:44.535Z,75.87
2023-08-15T22:36:11.020Z,75.71
2023-08-15T22:38:37.377Z,75.40
2023-08-15T22:41:03.787Z,75.39
2023-08-15T22:43:30.173Z,74.90
2023-08-15T22:45:56.581Z,75.04
2023-08-15T22:48:23.025Z,75.32
2023-08-15T22:50:49.452Z,75.72
2023-08-15T22:53:15.850Z,75.06
2023-08-15T22:55:42.230Z,75.71
2023-08-15T22:58:09.046Z,76.38
2023-08-15T23:00:35.464Z,78.19
2023-08-15T23:03:01.915Z,77.49
2023-08-15T23:05:28.401Z,80.07
2023-08-15T23:07:54.776Z,79.54
2023-08-15T23:10:21.167Z,79.18
2023-08-15T23:12:47.735Z,79.00
2023-08-15T23:15:14.248Z,78.52
2023-08-15T23:17:40.706Z,79.61
2023-08-15T23:20:09.217Z,78.55
2023-08-15T23:22:35.662Z,77.40
2023-08-15T23:25:04.059Z,79.27
2023-08-15T23:27:30.515Z,79.53
2023-08-15T23:29:57.007Z,79.04
2023-08-15T23:32:23.414Z,78.41
2023-08-15T23:34:49.798Z,79.49
2023-08-15T23:37:16.648Z,78.95
2023-08-15T23:39:43.116Z,77.57
2023-08-15T23:42:09.532Z,76.70
2023-08-15T23:44:35.893Z,76.41
2023-08-15T23:47:02.298Z,76.97
2023-08-15T23:49:28.986Z,76.73
2023-08-15T23:51:55.904Z,76.59
2023-08-15T23:54:22.980Z,76.74
2023-08-15T23:56:49.340Z,76.83
2023-08-15T23:59:15.699Z,76.51
